createdAt,value
2023-01-25T00:01:08.672Z,29.58
2023-01-25T00:03:37.628Z,29.85
2023-01-25T00:06:05.813Z,28.70
2023-01-25T00:08:34.589Z,25.35
2023-01-25T00:11:04.064Z,28.80
2023-01-25T00:13:33.717Z,28.95
2023-01-25T00:16:06.905Z,26.40
2023-01-25T00:18:35.279Z,30.67
2023-01-25T00:21:14.922Z,29.08
2023-01-25T00:23:43.351Z,31.77
2023-01-25T00:26:12.557Z,30.95
2023-01-25T00:28:42.008Z,32.67
2023-01-25T00:31:30.362Z,29.58
2023-01-25T00:34:20.553Z,31.45
2023-01-25T00:36:53.344Z,34.80
2023-01-25T00:39:21.657Z,36.65
2023-01-25T00:41:49.591Z,31.00
2023-01-25T00:44:19.102Z,34.13
2023-01-25T00:46:48.088Z,32.17
2023-01-25T00:49:22.155Z,35.05
2023-01-25T00:51:50.746Z,33.90
2023-01-25T00:54:20.323Z,31.52
2023-01-25T00:56:48.324Z,34.35
2023-01-25T00:59:16.842Z,33.15
2023-01-25T01:01:46.242Z,31.27
2023-01-25T01:04:14.586Z,36.63
2023-01-25T01:07:01.661Z,29.33
2023-01-25T01:09:30.575Z,30.67
2023-01-25T01:11:58.520Z,30.45
2023-01-25T01:15:21.708Z,29.85
2023-01-25T01:18:45.228Z,33.97
2023-01-25T01:21:16.731Z,30.65
2023-01-25T01:23:45.741Z,27.83
2023-01-25T01:26:15.672Z,32.58
2023-01-25T01:28:44.062Z,31.85
2023-01-25T01:31:15.626Z,35.70
2023-01-25T01:33:43.947Z,31.48
2023-01-25T01:36:14.577Z,32.97
2023-01-25T01:38:46.849Z,30.75
2023-01-25T01:41:15.948Z,31.70
2023-01-25T01:43:46.847Z,33.92
2023-01-25T01:46:20.625Z,35.65
2023-01-25T01:48:57.916Z,30.42
2023-01-25T01:51:41.028Z,31.27
2023-01-25T01:54:17.610Z,31.10
2023-01-25T01:56:52.724Z,33.78
2023-01-25T01:59:24.464Z,30.15
2023-01-25T02:01:55.227Z,30.40
2023-01-25T02:04:27.818Z,30.95
2023-01-25T02:07:02.940Z,31.15
2023-01-25T02:09:36.391Z,32.38
2023-01-25T02:12:06.283Z,30.10
2023-01-25T02:14:35.717Z,27.48
2023-01-25T02:17:05.622Z,28.10
2023-01-25T02:19:45.214Z,30.90
2023-01-25T02:22:17.455Z,33.95
2023-01-25T02:25:05.904Z,30.17
2023-01-25T02:27:37.319Z,31.10
2023-01-25T02:30:06.346Z,31.65
2023-01-25T02:32:34.890Z,27.98
2023-01-25T02:35:04.450Z,33.03
2023-01-25T02:37:32.565Z,30.95
2023-01-25T02:40:02.053Z,30.40
2023-01-25T02:42:32.040Z,29.80
2023-01-25T02:45:03.478Z,28.75
2023-01-25T02:47:32.724Z,24.95
2023-01-25T02:50:05.961Z,26.70
2023-01-25T02:52:34.269Z,29.42
2023-01-25T02:55:07.110Z,27.80
2023-01-25T03:00:05.830Z,28.17
2023-01-25T03:02:34.189Z,28.80
2023-01-25T03:05:02.377Z,28.60
2023-01-25T03:07:30.391Z,27.10
2023-01-25T03:09:58.461Z,21.40
2023-01-25T03:12:27.963Z,25.80
2023-01-25T03:14:56.012Z,25.83
2023-01-25T03:17:26.476Z,24.55
2023-01-25T03:19:55.427Z,24.60
2023-01-25T03:22:27.584Z,22.23
2023-01-25T03:24:57.248Z,23.10
2023-01-25T03:27:25.705Z,23.35
2023-01-25T03:29:55.079Z,24.10
2023-01-25T03:32:23.603Z,21.50
2023-01-25T03:34:51.760Z,22.02
2023-01-25T03:37:20.180Z,20.60
2023-01-25T03:39:48.419Z,18.58
2023-01-25T03:42:17.169Z,21.13
2023-01-25T03:44:45.605Z,20.67
2023-01-25T03:47:26.634Z,22.13
2023-01-25T03:49:54.872Z,17.85
2023-01-25T03:52:24.669Z,24.67
2023-01-25T03:54:52.593Z,20.33
2023-01-25T03:57:22.244Z,19.10
2023-01-25T03:59:50.416Z,17.42
2023-01-25T04:02:20.462Z,23.85
2023-01-25T04:04:48.805Z,21.48
2023-01-25T04:07:17.005Z,22.05
2023-01-25T04:09:46.134Z,30.50
2023-01-25T04:12:20.187Z,27.60
2023-01-25T04:14:48.325Z,22.17
2023-01-25T04:17:16.856Z,21.27
2023-01-25T04:19:46.533Z,22.95
2023-01-25T04:22:15.267Z,20.98
2023-01-25T04:24:43.695Z,19.42
2023-01-25T04:27:12.299Z,24.48
2023-01-25T04:29:42.020Z,17.90
2023-01-25T04:32:10.487Z,22.02
2023-01-25T04:34:38.660Z,21.67
2023-01-25T04:37:11.129Z,23.30
2023-01-25T04:39:39.669Z,21.55
2023-01-25T04:42:07.670Z,19.58
2023-01-25T04:44:35.994Z,20.85
2023-01-25T04:47:04.833Z,19.63
2023-01-25T04:49:32.851Z,20.42
2023-01-25T04:52:03.739Z,18.83
2023-01-25T04:54:34.097Z,21.20
2023-01-25T04:57:08.176Z,17.75
2023-01-25T04:59:36.324Z,21.17
2023-01-25T05:02:05.735Z,19.83
2023-01-25T05:04:34.190Z,17.55
2023-01-25T05:07:02.411Z,19.85
2023-01-25T05:09:31.934Z,18.63
2023-01-25T05:12:03.269Z,20.23
2023-01-25T05:14:31.656Z,23.88
2023-01-25T05:16:59.999Z,19.50
2023-01-25T05:19:32.473Z,18.35
2023-01-25T05:22:01.746Z,16.40
2023-01-25T05:24:33.794Z,18.00
2023-01-25T05:27:03.666Z,20.98
2023-01-25T05:29:36.496Z,16.48
2023-01-25T05:32:08.617Z,20.13
2023-01-25T05:34:37.648Z,20.57
2023-01-25T05:37:08.563Z,20.10
2023-01-25T05:39:38.336Z,23.58
2023-01-25T05:42:12.742Z,24.00
2023-01-25T05:44:44.782Z,24.67
2023-01-25T05:47:17.957Z,21.63
2023-01-25T05:49:47.595Z,24.02
2023-01-25T05:52:16.905Z,26.20
2023-01-25T05:54:56.610Z,25.20
2023-01-25T05:57:25.312Z,24.20
2023-01-25T05:59:55.874Z,24.75
2023-01-25T06:02:24.383Z,22.73
2023-01-25T06:04:52.666Z,26.73
2023-01-25T06:07:22.048Z,24.88
2023-01-25T06:09:52.995Z,28.17
2023-01-25T06:12:22.481Z,26.67
2023-01-25T06:14:51.799Z,27.35
2023-01-25T06:17:19.765Z,27.23
2023-01-25T06:19:47.914Z,30.52
2023-01-25T06:22:16.527Z,30.95
2023-01-25T06:24:45.816Z,22.02
2023-01-25T06:27:15.999Z,23.73
2023-01-25T06:29:44.669Z,22.95
2023-01-25T06:32:12.881Z,20.33
2023-01-25T06:34:41.166Z,24.85
2023-01-25T06:37:09.703Z,25.92
2023-01-25T06:39:37.936Z,27.02
2023-01-25T06:42:06.315Z,26.63
2023-01-25T06:44:36.302Z,21.90
2023-01-25T06:47:04.576Z,25.98
2023-01-25T06:49:47.726Z,28.52
2023-01-25T06:52:18.655Z,25.65
2023-01-25T06:54:47.299Z,28.77
2023-01-25T06:57:28.557Z,28.38
2023-01-25T07:00:02.668Z,29.58
2023-01-25T07:02:31.109Z,27.50
2023-01-25T07:04:59.739Z,28.83
2023-01-25T07:07:28.174Z,32.25
2023-01-25T07:09:56.204Z,35.70
2023-01-25T07:12:24.607Z,27.27
2023-01-25T07:14:52.644Z,31.83
2023-01-25T07:17:22.060Z,27.23
2023-01-25T07:19:49.923Z,30.58
2023-01-25T07:22:18.527Z,28.17
2023-01-25T07:24:50.701Z,30.70
2023-01-25T07:27:20.097Z,31.77
2023-01-25T07:29:48.495Z,30.35
2023-01-25T07:32:16.722Z,28.70
2023-01-25T07:34:48.794Z,32.47
2023-01-25T07:37:17.167Z,37.73
2023-01-25T07:39:49.584Z,33.00
2023-01-25T07:42:17.636Z,33.40
2023-01-25T07:44:45.841Z,32.10
2023-01-25T07:47:13.836Z,33.10
2023-01-25T07:49:43.504Z,36.20
2023-01-25T07:52:12.933Z,31.30
2023-01-25T07:54:42.296Z,37.00
2023-01-25T07:57:10.545Z,34.35
2023-01-25T07:59:38.380Z,36.65
2023-01-25T08:02:06.319Z,35.33
2023-01-25T08:04:34.772Z,29.30
2023-01-25T08:07:02.634Z,32.58
2023-01-25T08:09:32.146Z,32.08
2023-01-25T08:12:00.127Z,34.38
2023-01-25T08:14:28.691Z,28.92
2023-01-25T08:16:57.066Z,30.75
2023-01-25T08:19:26.824Z,34.55
2023-01-25T08:21:57.346Z,35.88
2023-01-25T08:24:25.662Z,30.40
2023-01-25T08:26:55.364Z,32.20
2023-01-25T08:29:23.884Z,37.08
2023-01-25T08:31:53.541Z,36.05
2023-01-25T08:34:21.971Z,31.52
2023-01-25T08:39:19.704Z,31.02
2023-01-25T08:41:48.259Z,38.90
2023-01-25T08:44:22.235Z,32.42
2023-01-25T08:46:51.076Z,28.40
2023-01-25T08:49:19.362Z,35.65
2023-01-25T08:51:48.265Z,33.65
2023-01-25T08:54:16.635Z,31.48
2023-01-25T08:56:44.510Z,34.38
2023-01-25T08:59:14.749Z,37.20
2023-01-25T09:01:44.310Z,35.13
2023-01-25T09:04:12.469Z,34.17
2023-01-25T09:06:40.629Z,28.23
2023-01-25T09:09:09.260Z,30.92
2023-01-25T09:11:38.547Z,36.78
2023-01-25T09:14:07.099Z,32.97
2023-01-25T09:16:35.375Z,31.33
2023-01-25T09:19:06.211Z,35.70
2023-01-25T09:21:35.451Z,29.77
2023-01-25T09:24:06.655Z,32.25
2023-01-25T09:26:37.104Z,36.80
2023-01-25T09:29:08.199Z,30.40
2023-01-25T09:31:37.149Z,29.35
2023-01-25T09:34:06.618Z,31.42
2023-01-25T09:36:37.189Z,31.30
2023-01-25T09:39:05.839Z,33.70
2023-01-25T09:42:00.384Z,28.35
2023-01-25T09:44:42.694Z,32.97
2023-01-25T09:47:20.213Z,30.70
2023-01-25T09:50:08.275Z,27.95
2023-01-25T09:53:00.670Z,30.35
2023-01-25T09:55:32.372Z,26.17
2023-01-25T09:58:03.948Z,26.90
2023-01-25T10:00:34.525Z,32.72
2023-01-25T10:03:11.842Z,31.52
2023-01-25T10:05:45.823Z,27.00
2023-01-25T10:08:25.865Z,25.85
2023-01-25T10:11:00.785Z,24.13
2023-01-25T10:13:31.838Z,26.00
2023-01-25T10:16:17.625Z,26.63
2023-01-25T10:19:02.617Z,30.98
2023-01-25T10:21:37.298Z,31.15
2023-01-25T10:24:42.558Z,27.67
2023-01-25T10:27:29.338Z,23.08
2023-01-25T10:30:00.240Z,28.35
2023-01-25T10:32:32.507Z,26.73
2023-01-25T10:35:17.427Z,30.70
2023-01-25T10:37:52.271Z,29.67
2023-01-25T10:40:24.391Z,31.42
2023-01-25T10:42:57.343Z,29.83
2023-01-25T10:48:03.095Z,30.40
2023-01-25T10:51:14.692Z,31.25
2023-01-25T10:53:44.581Z,30.33
2023-01-25T10:56:25.777Z,29.02
2023-01-25T10:59:07.186Z,31.65
2023-01-25T11:01:37.855Z,27.20
2023-01-25T11:04:31.968Z,28.77
2023-01-25T11:07:03.021Z,27.02
2023-01-25T11:09:35.844Z,29.85
2023-01-25T11:12:05.743Z,24.38
2023-01-25T11:14:34.787Z,23.63
2023-01-25T11:17:06.101Z,23.70
2023-01-25T11:19:36.871Z,24.65
2023-01-25T11:22:20.932Z,21.77
2023-01-25T11:24:50.175Z,26.05
2023-01-25T11:27:21.398Z,24.10
2023-01-25T11:30:10.404Z,41.13
2023-01-25T11:32:40.524Z,26.77
2023-01-25T11:35:16.509Z,23.38
2023-01-25T11:37:59.783Z,25.85
2023-01-25T11:43:12.758Z,20.75
2023-01-25T11:45:53.015Z,31.27
2023-01-25T11:48:47.218Z,26.58
2023-01-25T11:51:27.428Z,22.02
2023-01-25T11:54:08.742Z,26.48
2023-01-25T11:56:51.887Z,23.08
2023-01-25T11:59:37.129Z,41.22
2023-01-25T12:02:29.190Z,25.02
2023-01-25T12:05:21.773Z,39.30
2023-01-25T12:07:59.368Z,22.23
2023-01-25T12:10:40.046Z,19.30
2023-01-25T12:13:18.792Z,30.00
2023-01-25T12:16:05.561Z,36.00
2023-01-25T12:19:03.722Z,38.22
2023-01-25T12:21:43.107Z,55.55
2023-01-25T12:24:39.099Z,21.73
2023-01-25T12:27:17.895Z,22.50
2023-01-25T12:29:52.739Z,25.02
2023-01-25T12:32:29.602Z,18.10
2023-01-25T12:35:12.641Z,22.40
2023-01-25T12:37:44.855Z,22.58
2023-01-25T12:40:18.360Z,23.10
2023-01-25T12:42:54.871Z,23.60
2023-01-25T12:45:28.923Z,24.25
2023-01-25T12:48:01.689Z,19.00
2023-01-25T12:50:36.522Z,19.73
2023-01-25T12:53:12.312Z,18.92
2023-01-25T12:55:41.747Z,22.92
2023-01-25T12:58:23.792Z,18.73
2023-01-25T13:01:08.614Z,33.13
2023-01-25T13:03:48.012Z,31.98
2023-01-25T13:06:23.167Z,30.02
2023-01-25T13:09:13.338Z,23.50
2023-01-25T13:11:42.588Z,24.48
2023-01-25T13:14:31.772Z,22.00
2023-01-25T13:17:24.863Z,20.40
2023-01-25T13:19:53.872Z,23.10
2023-01-25T13:22:58.757Z,22.63
2023-01-25T13:25:28.179Z,20.60
2023-01-25T13:28:30.039Z,20.27
2023-01-25T13:31:00.867Z,24.00
2023-01-25T13:33:39.022Z,26.70
2023-01-25T13:36:40.196Z,31.65
2023-01-25T13:39:43.346Z,29.88
2023-01-25T13:42:23.682Z,32.85
2023-01-25T13:44:55.040Z,33.33
2023-01-25T13:47:26.069Z,29.77
2023-01-25T13:50:01.113Z,32.30
2023-01-25T13:52:32.352Z,30.58
2023-01-25T13:55:02.452Z,31.88
2023-01-25T13:57:32.339Z,28.10
2023-01-25T14:00:11.397Z,32.10
2023-01-25T14:02:42.533Z,30.70
2023-01-25T14:05:21.264Z,28.92
2023-01-25T14:07:52.483Z,36.08
2023-01-25T14:10:24.359Z,36.05
2023-01-25T14:12:56.166Z,40.05
2023-01-25T14:15:27.522Z,55.25
2023-01-25T14:18:28.467Z,38.92
2023-01-25T14:21:12.691Z,31.35
2023-01-25T14:23:42.580Z,27.58
2023-01-25T14:26:20.388Z,30.88
2023-01-25T14:29:01.023Z,28.63
2023-01-25T14:31:37.417Z,35.70
2023-01-25T14:34:06.348Z,36.00
2023-01-25T14:36:35.943Z,28.75
2023-01-25T14:39:15.055Z,31.35
2023-01-25T14:41:59.850Z,35.10
2023-01-25T14:44:30.682Z,39.72
2023-01-25T14:47:21.926Z,29.67
2023-01-25T14:49:50.651Z,33.15
2023-01-25T14:52:21.937Z,35.42
2023-01-25T14:54:52.963Z,35.30
2023-01-25T14:57:36.717Z,32.42
2023-01-25T15:00:09.322Z,36.20
2023-01-25T15:02:42.185Z,40.75
2023-01-25T15:07:51.772Z,31.67
2023-01-25T15:10:23.547Z,34.92
2023-01-25T15:13:13.666Z,33.05
2023-01-25T15:15:55.678Z,37.65
2023-01-25T15:18:46.486Z,36.13
2023-01-25T15:21:19.392Z,35.58
2023-01-25T15:23:50.877Z,33.80
2023-01-25T15:26:21.899Z,40.45
2023-01-25T15:28:52.295Z,33.42
2023-01-25T15:31:25.608Z,38.08
2023-01-25T15:33:56.677Z,36.13
2023-01-25T15:36:25.027Z,40.05
2023-01-25T15:38:58.943Z,46.97
2023-01-25T15:41:27.238Z,40.90
2023-01-25T15:43:55.457Z,55.83
2023-01-25T15:46:26.156Z,38.72
2023-01-25T15:48:55.321Z,37.05
2023-01-25T15:51:24.435Z,35.50
2023-01-25T15:53:53.761Z,41.47
2023-01-25T15:56:24.674Z,40.90
2023-01-25T15:58:54.237Z,39.83
2023-01-25T16:01:27.383Z,41.63
2023-01-25T16:03:56.800Z,45.80
2023-01-25T16:06:38.845Z,38.22
2023-01-25T16:09:15.736Z,37.60
2023-01-25T16:11:44.262Z,42.60
2023-01-25T16:14:12.838Z,38.35
2023-01-25T16:16:44.510Z,36.78
2023-01-25T16:19:15.968Z,33.58
2023-01-25T16:21:44.665Z,36.85
2023-01-25T16:24:14.525Z,38.97
2023-01-25T16:26:47.496Z,33.63
2023-01-25T16:29:16.892Z,37.05
2023-01-25T16:31:45.010Z,34.60
2023-01-25T16:34:13.395Z,34.28
2023-01-25T16:36:41.437Z,36.08
2023-01-25T16:39:14.535Z,33.95
2023-01-25T16:41:46.357Z,38.97
2023-01-25T16:44:14.545Z,41.30
2023-01-25T16:46:43.018Z,40.67
2023-01-25T16:49:16.059Z,42.85
2023-01-25T16:54:14.380Z,38.20
2023-01-25T16:56:43.822Z,37.10
2023-01-25T16:59:12.698Z,40.80
2023-01-25T17:01:41.698Z,44.53
2023-01-25T17:04:10.302Z,42.53
2023-01-25T17:06:40.372Z,42.33
2023-01-25T17:09:21.940Z,45.72
2023-01-25T17:11:52.697Z,61.83
2023-01-25T17:14:20.969Z,50.17
2023-01-25T17:16:51.770Z,41.65
2023-01-25T17:19:21.212Z,42.45
2023-01-25T17:21:51.103Z,42.65
2023-01-25T17:24:22.293Z,41.95
2023-01-25T17:26:53.572Z,44.10
2023-01-25T17:29:21.954Z,45.78
2023-01-25T17:31:50.194Z,48.90
2023-01-25T17:34:20.138Z,45.00
2023-01-25T17:36:48.833Z,49.35
2023-01-25T17:39:19.397Z,43.95
2023-01-25T17:41:49.880Z,45.47
2023-01-25T17:44:21.711Z,45.70
2023-01-25T17:46:51.012Z,43.90
2023-01-25T17:49:20.099Z,47.30
2023-01-25T17:51:48.172Z,47.30
2023-01-25T17:54:16.114Z,48.88
2023-01-25T17:56:44.566Z,47.70
2023-01-25T17:59:14.711Z,52.50
2023-01-25T18:01:44.323Z,50.97
2023-01-25T18:04:13.478Z,46.53
2023-01-25T18:06:41.782Z,44.17
2023-01-25T18:09:10.689Z,50.38
2023-01-25T18:11:40.311Z,50.80
2023-01-25T18:14:12.494Z,43.50
2023-01-25T18:16:43.626Z,52.45
2023-01-25T18:19:12.630Z,47.65
2023-01-25T18:21:42.427Z,56.13
2023-01-25T18:24:26.587Z,50.90
2023-01-25T18:27:01.193Z,45.25
2023-01-25T18:29:46.759Z,52.42
2023-01-25T18:32:17.123Z,43.30
2023-01-25T18:34:48.199Z,43.85
2023-01-25T18:37:20.982Z,43.13
2023-01-25T18:39:50.748Z,46.50
2023-01-25T18:42:20.105Z,46.60
2023-01-25T18:44:49.642Z,47.22
2023-01-25T18:47:21.112Z,45.25
2023-01-25T18:49:50.362Z,48.03
2023-01-25T18:52:19.337Z,47.70
2023-01-25T18:54:48.299Z,51.58
2023-01-25T18:57:16.681Z,52.15
2023-01-25T18:59:45.450Z,50.67
2023-01-25T19:02:15.434Z,48.88
2023-01-25T19:04:45.531Z,46.15
2023-01-25T19:07:14.457Z,44.53
2023-01-25T19:09:43.727Z,47.47
2023-01-25T19:12:12.424Z,53.67
2023-01-25T19:14:40.354Z,64.15
2023-01-25T19:17:08.859Z,58.30
2023-01-25T19:19:37.113Z,53.70
2023-01-25T19:22:10.022Z,45.95
2023-01-25T19:27:06.128Z,46.45
2023-01-25T19:29:34.116Z,50.33
2023-01-25T19:32:02.219Z,49.90
2023-01-25T19:34:30.162Z,52.28
2023-01-25T19:36:58.618Z,50.00
2023-01-25T19:39:27.958Z,49.55
2023-01-25T19:41:56.362Z,47.13
2023-01-25T19:44:25.213Z,52.25
2023-01-25T19:46:53.185Z,56.95
2023-01-25T19:49:22.341Z,54.55
2023-01-25T19:51:53.284Z,51.03
2023-01-25T19:54:22.970Z,47.25
2023-01-25T19:56:53.737Z,42.63
2023-01-25T19:59:24.748Z,44.35
2023-01-25T20:01:53.295Z,59.58
2023-01-25T20:04:23.802Z,47.97
2023-01-25T20:06:52.365Z,54.75
2023-01-25T20:09:24.913Z,47.83
2023-01-25T20:11:57.352Z,48.90
2023-01-25T20:14:25.998Z,52.60
2023-01-25T20:16:54.322Z,56.88
2023-01-25T20:19:22.382Z,53.90
2023-01-25T20:21:50.753Z,50.47
2023-01-25T20:24:19.011Z,54.00
2023-01-25T20:26:47.409Z,52.53
2023-01-25T20:29:16.823Z,47.78
2023-01-25T20:31:46.659Z,57.33
2023-01-25T20:34:16.719Z,53.45
2023-01-25T20:36:45.786Z,52.58
2023-01-25T20:39:15.574Z,54.17
2023-01-25T20:41:43.667Z,57.10
2023-01-25T20:44:13.408Z,52.17
2023-01-25T20:46:46.452Z,57.03
2023-01-25T20:49:17.579Z,58.55
2023-01-25T20:51:46.775Z,50.05
2023-01-25T20:54:18.193Z,60.38
2023-01-25T20:56:48.175Z,58.35
2023-01-25T20:59:18.225Z,52.75
2023-01-25T21:01:48.026Z,47.25
2023-01-25T21:04:17.227Z,57.50
2023-01-25T21:06:45.537Z,55.42
2023-01-25T21:09:14.167Z,55.33
2023-01-25T21:11:42.847Z,56.33
2023-01-25T21:14:11.781Z,54.17
2023-01-25T21:16:39.739Z,56.53
2023-01-25T21:19:09.971Z,58.20
2023-01-25T21:21:38.514Z,55.42
2023-01-25T21:24:07.793Z,53.78
2023-01-25T21:26:38.543Z,61.25
2023-01-25T21:29:07.808Z,48.67
2023-01-25T21:31:37.621Z,52.50
2023-01-25T21:34:07.068Z,57.50
2023-01-25T21:36:36.938Z,54.40
2023-01-25T21:39:05.314Z,58.30
2023-01-25T21:41:34.656Z,56.67
2023-01-25T21:44:22.092Z,61.40
2023-01-25T21:49:56.909Z,53.45
2023-01-25T21:52:26.615Z,54.28
2023-01-25T21:54:54.798Z,57.22
2023-01-25T21:57:23.161Z,51.55
2023-01-25T21:59:53.937Z,59.20
2023-01-25T22:02:22.285Z,49.35
2023-01-25T22:04:50.534Z,54.67
2023-01-25T22:07:18.651Z,47.45
2023-01-25T22:09:49.590Z,54.72
2023-01-25T22:12:17.574Z,49.35
2023-01-25T22:14:47.222Z,49.15
2023-01-25T22:17:15.738Z,52.40
2023-01-25T22:19:43.854Z,54.97
2023-01-25T22:22:12.092Z,53.50
2023-01-25T22:24:40.514Z,50.95
2023-01-25T22:27:31.902Z,50.40
2023-01-25T22:30:00.405Z,49.38
2023-01-25T22:32:28.448Z,47.83
2023-01-25T22:34:56.409Z,44.08
2023-01-25T22:37:24.599Z,53.10
2023-01-25T22:39:54.208Z,48.95
2023-01-25T22:42:23.724Z,46.30
2023-01-25T22:44:51.998Z,46.33
2023-01-25T22:47:20.295Z,50.97
2023-01-25T22:49:48.390Z,49.85
2023-01-25T22:52:16.776Z,49.88
2023-01-25T22:54:44.862Z,45.78
2023-01-25T22:57:13.361Z,43.47
2023-01-25T22:59:43.279Z,41.08
2023-01-25T23:02:11.342Z,42.90
2023-01-25T23:04:39.419Z,44.67
2023-01-25T23:07:19.008Z,37.45
2023-01-25T23:09:48.563Z,50.65
2023-01-25T23:12:16.759Z,43.13
2023-01-25T23:14:51.599Z,43.53
2023-01-25T23:17:38.812Z,44.90
2023-01-25T23:20:09.479Z,46.95
2023-01-25T23:22:38.005Z,42.03
2023-01-25T23:25:10.418Z,43.45
2023-01-25T23:27:39.183Z,43.03
2023-01-25T23:30:11.807Z,42.47
2023-01-25T23:32:42.562Z,47.70
2023-01-25T23:35:11.783Z,44.80
2023-01-25T23:37:40.197Z,42.03
2023-01-25T23:40:09.960Z,43.63
2023-01-25T23:42:38.785Z,38.92
2023-01-25T23:45:13.643Z,47.70
2023-01-25T23:47:43.696Z,41.45
2023-01-25T23:50:13.692Z,47.50
2023-01-25T23:52:42.067Z,44.08
2023-01-25T23:55:11.480Z,42.63
2023-01-25T23:57:39.761Z,46.08
